sensor_id;sensor_type;location;lat;lon;timestamp;temperature;humidity
22008;DHT22;11168;56.976;24.168;2023-08-08T00:01:40;15.30;99.90
22008;DHT22;11168;56.976;24.168;2023-08-08T00:04:10;15.50;99.90
22008;DHT22;11168;56.976;24.168;2023-08-08T00:06:37;15.50;99.90
22008;DHT22;11168;56.976;24.168;2023-08-08T00:09:04;15.50;99.90
22008;DHT22;11168;56.976;24.168;2023-08-08T00:11:31;15.50;99.90
22008;DHT22;11168;56.976;24.168;2023-08-08T00:13:58;15.50;99.90
22008;DHT22;11168;56.976;24.168;2023-08-08T00:16:25;15.80;99.90
22008;DHT22;11168;56.976;24.168;2023-08-08T00:18:52;15.90;99.90
22008;DHT22;11168;56.976;24.168;2023-08-08T00:21:20;15.90;99.90
22008;DHT22;11168;56.976;24.168;2023-08-08T00:23:47;15.90;99.90
22008;DHT22;11168;56.976;24.168;2023-08-08T00:26:14;15.90;99.90
22008;DHT22;11168;56.976;24.168;2023-08-08T00:28:41;15.90;99.90
22008;DHT22;11168;56.976;24.168;2023-08-08T00:31:08;15.90;99.90
22008;DHT22;11168;56.976;24.168;2023-08-08T00:33:35;15.80;99.90
22008;DHT22;11168;56.976;24.168;2023-08-08T00:36:02;15.80;99.90
22008;DHT22;11168;56.976;24.168;2023-08-08T00:38:28;15.50;99.90
22008;DHT22;11168;56.976;24.168;2023-08-08T00:40:55;15.60;99.90
22008;DHT22;11168;56.976;24.168;2023-08-08T00:43:22;15.70;99.90
22008;DHT22;11168;56.976;24.168;2023-08-08T00:45:49;15.70;99.90
22008;DHT22;11168;56.976;24.168;2023-08-08T00:48:16;15.60;99.90
22008;DHT22;11168;56.976;24.168;2023-08-08T00:50:44;15.70;99.90
22008;DHT22;11168;56.976;24.168;2023-08-08T00:53:11;15.70;99.90
22008;DHT22;11168;56.976;24.168;2023-08-08T00:55:39;15.70;99.90
22008;DHT22;11168;56.976;24.168;2023-08-08T00:58:06;15.70;99.90
22008;DHT22;11168;56.976;24.168;2023-08-08T01:00:33;15.70;99.90
22008;DHT22;11168;56.976;24.168;2023-08-08T01:03:00;15.70;99.90
22008;DHT22;11168;56.976;24.168;2023-08-08T01:05:38;15.70;99.90
22008;DHT22;11168;56.976;24.168;2023-08-08T01:08:08;15.60;99.90
22008;DHT22;11168;56.976;24.168;2023-08-08T01:10:38;15.70;99.90
22008;DHT22;11168;56.976;24.168;2023-08-08T01:13:09;15.60;99.90
22008;DHT22;11168;56.976;24.168;2023-08-08T01:15:37;15.70;99.90
22008;DHT22;11168;56.976;24.168;2023-08-08T01:18:07;15.60;99.90
22008;DHT22;11168;56.976;24.168;2023-08-08T01:20:35;15.60;99.90
22008;DHT22;11168;56.976;24.168;2023-08-08T01:25:51;15.70;99.90
22008;DHT22;11168;56.976;24.168;2023-08-08T01:28:22;15.70;99.90
22008;DHT22;11168;56.976;24.168;2023-08-08T01:30:50;15.60;99.90
22008;DHT22;11168;56.976;24.168;2023-08-08T01:33:17;15.60;99.90
22008;DHT22;11168;56.976;24.168;2023-08-08T01:35:48;15.70;99.90
22008;DHT22;11168;56.976;24.168;2023-08-08T01:38:41;15.60;99.90
22008;DHT22;11168;56.976;24.168;2023-08-08T01:41:07;15.60;99.90
22008;DHT22;11168;56.976;24.168;2023-08-08T01:43:37;15.60;99.90
22008;DHT22;11168;56.976;24.168;2023-08-08T01:46:04;15.50;99.90
22008;DHT22;11168;56.976;24.168;2023-08-08T01:48:32;15.60;99.90
22008;DHT22;11168;56.976;24.168;2023-08-08T01:50:59;15.60;99.90
22008;DHT22;11168;56.976;24.168;2023-08-08T01:53:26;15.60;99.90
22008;DHT22;11168;56.976;24.168;2023-08-08T01:55:53;15.60;99.90
22008;DHT22;11168;56.976;24.168;2023-08-08T01:58:20;15.50;99.90
22008;DHT22;11168;56.976;24.168;2023-08-08T02:00:47;15.60;99.90
22008;DHT22;11168;56.976;24.168;2023-08-08T02:03:14;15.50;99.90
22008;DHT22;11168;56.976;24.168;2023-08-08T02:05:41;15.60;99.90
22008;DHT22;11168;56.976;24.168;2023-08-08T02:08:08;15.50;99.90
22008;DHT22;11168;56.976;24.168;2023-08-08T02:10:34;15.50;99.90
22008;DHT22;11168;56.976;24.168;2023-08-08T02:13:01;15.50;99.90
22008;DHT22;11168;56.976;24.168;2023-08-08T02:15:28;15.50;99.90
22008;DHT22;11168;56.976;24.168;2023-08-08T02:17:55;15.50;99.90
22008;DHT22;11168;56.976;24.168;2023-08-08T02:20:22;15.50;99.90
22008;DHT22;11168;56.976;24.168;2023-08-08T02:22:49;15.50;99.90
22008;DHT22;11168;56.976;24.168;2023-08-08T02:25:16;15.50;99.90
22008;DHT22;11168;56.976;24.168;2023-08-08T02:27:42;15.50;99.90
22008;DHT22;11168;56.976;24.168;2023-08-08T02:30:10;15.50;99.90
22008;DHT22;11168;56.976;24.168;2023-08-08T02:32:37;15.50;99.90
22008;DHT22;11168;56.976;24.168;2023-08-08T02:35:04;15.50;99.90
22008;DHT22;11168;56.976;24.168;2023-08-08T02:37:31;15.40;99.90
22008;DHT22;11168;56.976;24.168;2023-08-08T02:39:58;15.40;99.90
22008;DHT22;11168;56.976;24.168;2023-08-08T02:42:25;15.40;99.90
22008;DHT22;11168;56.976;24.168;2023-08-08T02:44:52;15.50;99.90
22008;DHT22;11168;56.976;24.168;2023-08-08T02:47:18;15.40;99.90
22008;DHT22;11168;56.976;24.168;2023-08-08T02:49:45;15.40;99.90
22008;DHT22;11168;56.976;24.168;2023-08-08T02:52:12;15.40;99.90
22008;DHT22;11168;56.976;24.168;2023-08-08T02:54:39;15.40;99.90
22008;DHT22;11168;56.976;24.168;2023-08-08T02:57:06;15.40;99.90
22008;DHT22;11168;56.976;24.168;2023-08-08T02:59:32;15.30;99.90
22008;DHT22;11168;56.976;24.168;2023-08-08T03:02:00;15.30;99.90
22008;DHT22;11168;56.976;24.168;2023-08-08T03:04:27;15.30;99.90
22008;DHT22;11168;56.976;24.168;2023-08-08T03:06:54;15.30;99.90
22008;DHT22;11168;56.976;24.168;2023-08-08T03:09:21;15.30;99.90
22008;DHT22;11168;56.976;24.168;2023-08-08T03:11:48;15.30;99.90
22008;DHT22;11168;56.976;24.168;2023-08-08T03:14:15;15.20;99.90
22008;DHT22;11168;56.976;24.168;2023-08-08T03:16:42;15.20;99.90
22008;DHT22;11168;56.976;24.168;2023-08-08T03:19:09;15.20;99.90
22008;DHT22;11168;56.976;24.168;2023-08-08T03:21:36;15.20;99.90
22008;DHT22;11168;56.976;24.168;2023-08-08T03:24:03;15.20;99.90
22008;DHT22;11168;56.976;24.168;2023-08-08T03:26:30;15.20;99.90
22008;DHT22;11168;56.976;24.168;2023-08-08T03:28:57;15.20;99.90
22008;DHT22;11168;56.976;24.168;2023-08-08T03:31:24;15.20;99.90
22008;DHT22;11168;56.976;24.168;2023-08-08T03:33:52;15.10;99.90
22008;DHT22;11168;56.976;24.168;2023-08-08T03:36:19;15.20;99.90
22008;DHT22;11168;56.976;24.168;2023-08-08T03:38:46;15.20;99.90
22008;DHT22;11168;56.976;24.168;2023-08-08T03:41:13;15.20;99.90
22008;DHT22;11168;56.976;24.168;2023-08-08T03:43:40;15.20;99.90
22008;DHT22;11168;56.976;24.168;2023-08-08T03:46:07;15.20;99.90
22008;DHT22;11168;56.976;24.168;2023-08-08T03:48:34;15.20;99.90
22008;DHT22;11168;56.976;24.168;2023-08-08T03:51:01;15.20;99.90
22008;DHT22;11168;56.976;24.168;2023-08-08T03:53:28;15.20;99.90
22008;DHT22;11168;56.976;24.168;2023-08-08T03:55:55;15.20;99.90
22008;DHT22;11168;56.976;24.168;2023-08-08T03:58:22;15.20;99.90
22008;DHT22;11168;56.976;24.168;2023-08-08T04:00:49;15.10;99.90
22008;DHT22;11168;56.976;24.168;2023-08-08T04:03:16;15.10;99.90
22008;DHT22;11168;56.976;24.168;2023-08-08T04:05:47;15.10;99.90
22008;DHT22;11168;56.976;24.168;2023-08-08T04:08:15;15.10;99.90
22008;DHT22;11168;56.976;24.168;2023-08-08T04:10:42;15.10;99.90
22008;DHT22;11168;56.976;24.168;2023-08-08T04:13:10;15.10;99.90
22008;DHT22;11168;56.976;24.168;2023-08-08T04:15:37;15.10;99.90
22008;DHT22;11168;56.976;24.168;2023-08-08T04:18:04;15.00;99.90
22008;DHT22;11168;56.976;24.168;2023-08-08T04:20:33;15.00;99.90
22008;DHT22;11168;56.976;24.168;2023-08-08T04:23:01;14.90;99.90
22008;DHT22;11168;56.976;24.168;2023-08-08T04:25:28;14.90;99.90
22008;DHT22;11168;56.976;24.168;2023-08-08T04:27:55;14.80;99.90
22008;DHT22;11168;56.976;24.168;2023-08-08T04:30:22;14.70;99.90
22008;DHT22;11168;56.976;24.168;2023-08-08T04:32:50;14.60;99.90
22008;DHT22;11168;56.976;24.168;2023-08-08T04:35:17;14.50;99.90
22008;DHT22;11168;56.976;24.168;2023-08-08T04:37:44;14.50;99.90
22008;DHT22;11168;56.976;24.168;2023-08-08T04:40:11;14.40;99.90
22008;DHT22;11168;56.976;24.168;2023-08-08T04:42:38;14.40;99.90
22008;DHT22;11168;56.976;24.168;2023-08-08T04:45:06;14.40;99.90
22008;DHT22;11168;56.976;24.168;2023-08-08T04:47:33;14.30;99.90
22008;DHT22;11168;56.976;24.168;2023-08-08T04:49:59;14.30;99.90
22008;DHT22;11168;56.976;24.168;2023-08-08T04:52:26;14.30;99.90
22008;DHT22;11168;56.976;24.168;2023-08-08T04:54:53;14.30;99.90
22008;DHT22;11168;56.976;24.168;2023-08-08T04:57:20;14.30;99.90
22008;DHT22;11168;56.976;24.168;2023-08-08T04:59:47;14.30;99.90
22008;DHT22;11168;56.976;24.168;2023-08-08T05:02:13;14.30;99.90
22008;DHT22;11168;56.976;24.168;2023-08-08T05:04:40;14.30;99.90
22008;DHT22;11168;56.976;24.168;2023-08-08T05:07:07;14.40;99.90
22008;DHT22;11168;56.976;24.168;2023-08-08T05:09:34;14.40;99.90
22008;DHT22;11168;56.976;24.168;2023-08-08T05:12:01;14.40;99.90
22008;DHT22;11168;56.976;24.168;2023-08-08T05:14:29;14.50;99.90
22008;DHT22;11168;56.976;24.168;2023-08-08T05:16:56;14.50;99.90
22008;DHT22;11168;56.976;24.168;2023-08-08T05:19:23;14.60;99.90
22008;DHT22;11168;56.976;24.168;2023-08-08T05:21:53;14.60;99.90
22008;DHT22;11168;56.976;24.168;2023-08-08T05:24:20;14.60;99.90
22008;DHT22;11168;56.976;24.168;2023-08-08T05:26:47;14.60;99.90
22008;DHT22;11168;56.976;24.168;2023-08-08T05:29:14;14.70;99.90
22008;DHT22;11168;56.976;24.168;2023-08-08T05:31:41;14.70;99.90
22008;DHT22;11168;56.976;24.168;2023-08-08T05:34:08;14.70;99.90
22008;DHT22;11168;56.976;24.168;2023-08-08T05:36:35;14.70;99.90
22008;DHT22;11168;56.976;24.168;2023-08-08T05:39:02;14.70;99.90
22008;DHT22;11168;56.976;24.168;2023-08-08T05:41:31;14.70;99.90
22008;DHT22;11168;56.976;24.168;2023-08-08T05:43:58;14.70;99.90
22008;DHT22;11168;56.976;24.168;2023-08-08T05:46:25;14.80;99.90
22008;DHT22;11168;56.976;24.168;2023-08-08T05:48:52;14.80;99.90
22008;DHT22;11168;56.976;24.168;2023-08-08T05:51:19;14.80;99.90
22008;DHT22;11168;56.976;24.168;2023-08-08T05:53:49;14.80;99.90
22008;DHT22;11168;56.976;24.168;2023-08-08T05:56:17;14.80;99.90
22008;DHT22;11168;56.976;24.168;2023-08-08T05:58:44;14.80;99.90
22008;DHT22;11168;56.976;24.168;2023-08-08T06:01:11;14.90;99.90
22008;DHT22;11168;56.976;24.168;2023-08-08T06:03:39;14.80;99.90
22008;DHT22;11168;56.976;24.168;2023-08-08T06:06:06;14.90;99.90
22008;DHT22;11168;56.976;24.168;2023-08-08T06:08:33;14.90;99.90
22008;DHT22;11168;56.976;24.168;2023-08-08T06:11:00;14.90;99.90
22008;DHT22;11168;56.976;24.168;2023-08-08T06:13:27;15.00;99.90
22008;DHT22;11168;56.976;24.168;2023-08-08T06:15:54;15.00;99.90
22008;DHT22;11168;56.976;24.168;2023-08-08T06:18:21;15.10;99.90
22008;DHT22;11168;56.976;24.168;2023-08-08T06:20:48;15.20;99.90
22008;DHT22;11168;56.976;24.168;2023-08-08T06:23:15;15.20;99.90
22008;DHT22;11168;56.976;24.168;2023-08-08T06:25:42;15.20;99.90
22008;DHT22;11168;56.976;24.168;2023-08-08T06:28:10;15.20;99.90
22008;DHT22;11168;56.976;24.168;2023-08-08T06:30:38;15.20;99.90
22008;DHT22;11168;56.976;24.168;2023-08-08T06:33:05;15.30;99.90
22008;DHT22;11168;56.976;24.168;2023-08-08T06:35:32;15.30;99.90
22008;DHT22;11168;56.976;24.168;2023-08-08T06:37:59;15.40;99.90
22008;DHT22;11168;56.976;24.168;2023-08-08T06:40:26;15.40;99.90
22008;DHT22;11168;56.976;24.168;2023-08-08T06:42:54;15.40;99.90
22008;DHT22;11168;56.976;24.168;2023-08-08T06:45:22;15.40;99.90
22008;DHT22;11168;56.976;24.168;2023-08-08T06:47:49;15.40;99.90
22008;DHT22;11168;56.976;24.168;2023-08-08T06:50:17;15.40;99.90
22008;DHT22;11168;56.976;24.168;2023-08-08T06:52:46;15.40;99.90
22008;DHT22;11168;56.976;24.168;2023-08-08T06:55:13;15.30;99.90
22008;DHT22;11168;56.976;24.168;2023-08-08T06:57:40;15.30;99.90
22008;DHT22;11168;56.976;24.168;2023-08-08T07:00:08;15.40;99.90
22008;DHT22;11168;56.976;24.168;2023-08-08T07:02:35;15.30;99.90
22008;DHT22;11168;56.976;24.168;2023-08-08T07:05:02;15.30;99.90
22008;DHT22;11168;56.976;24.168;2023-08-08T07:07:30;15.40;99.90
22008;DHT22;11168;56.976;24.168;2023-08-08T07:10:00;15.30;99.90
22008;DHT22;11168;56.976;24.168;2023-08-08T07:12:27;15.30;99.90
22008;DHT22;11168;56.976;24.168;2023-08-08T07:14:54;15.40;99.90
22008;DHT22;11168;56.976;24.168;2023-08-08T07:17:22;15.40;99.90
22008;DHT22;11168;56.976;24.168;2023-08-08T07:19:53;15.40;99.90
22008;DHT22;11168;56.976;24.168;2023-08-08T07:22:20;15.30;99.90
22008;DHT22;11168;56.976;24.168;2023-08-08T07:24:49;15.50;99.90
22008;DHT22;11168;56.976;24.168;2023-08-08T07:27:17;15.40;99.90
22008;DHT22;11168;56.976;24.168;2023-08-08T07:29:44;15.40;99.90
22008;DHT22;11168;56.976;24.168;2023-08-08T07:32:11;15.40;99.90
22008;DHT22;11168;56.976;24.168;2023-08-08T07:34:38;15.40;99.90
22008;DHT22;11168;56.976;24.168;2023-08-08T07:37:05;15.40;99.90
22008;DHT22;11168;56.976;24.168;2023-08-08T07:39:32;15.50;99.90
22008;DHT22;11168;56.976;24.168;2023-08-08T07:41:59;15.50;99.90
22008;DHT22;11168;56.976;24.168;2023-08-08T07:44:26;15.60;99.90
22008;DHT22;11168;56.976;24.168;2023-08-08T07:46:53;15.70;99.90
22008;DHT22;11168;56.976;24.168;2023-08-08T07:49:20;15.70;99.90
22008;DHT22;11168;56.976;24.168;2023-08-08T07:51:47;15.70;99.90
22008;DHT22;11168;56.976;24.168;2023-08-08T07:54:14;15.80;99.90
22008;DHT22;11168;56.976;24.168;2023-08-08T07:56:41;15.90;99.90
22008;DHT22;11168;56.976;24.168;2023-08-08T07:59:09;15.90;99.90
22008;DHT22;11168;56.976;24.168;2023-08-08T08:01:36;16.10;99.90
22008;DHT22;11168;56.976;24.168;2023-08-08T08:04:04;16.10;99.90
22008;DHT22;11168;56.976;24.168;2023-08-08T08:06:31;16.10;99.90
22008;DHT22;11168;56.976;24.168;2023-08-08T08:08:58;16.10;99.90
22008;DHT22;11168;56.976;24.168;2023-08-08T08:11:26;16.10;99.90
22008;DHT22;11168;56.976;24.168;2023-08-08T08:13:53;16.10;99.90
22008;DHT22;11168;56.976;24.168;2023-08-08T08:16:20;16.00;99.90
22008;DHT22;11168;56.976;24.168;2023-08-08T08:18:47;16.10;99.90
22008;DHT22;11168;56.976;24.168;2023-08-08T08:21:14;16.00;99.90
22008;DHT22;11168;56.976;24.168;2023-08-08T08:23:44;16.10;99.90
22008;DHT22;11168;56.976;24.168;2023-08-08T08:26:12;16.20;99.90
22008;DHT22;11168;56.976;24.168;2023-08-08T08:28:39;16.20;99.90
22008;DHT22;11168;56.976;24.168;2023-08-08T08:31:09;16.30;99.90
22008;DHT22;11168;56.976;24.168;2023-08-08T08:33:36;16.20;99.90
22008;DHT22;11168;56.976;24.168;2023-08-08T08:36:03;16.20;99.90
22008;DHT22;11168;56.976;24.168;2023-08-08T08:38:31;16.30;99.90
22008;DHT22;11168;56.976;24.168;2023-08-08T08:40:58;16.30;99.90
22008;DHT22;11168;56.976;24.168;2023-08-08T08:43:26;16.30;99.90
22008;DHT22;11168;56.976;24.168;2023-08-08T08:45:53;16.40;99.90
22008;DHT22;11168;56.976;24.168;2023-08-08T08:48:21;16.30;99.90
22008;DHT22;11168;56.976;24.168;2023-08-08T08:50:49;16.40;99.90
22008;DHT22;11168;56.976;24.168;2023-08-08T08:53:16;16.40;99.90
22008;DHT22;11168;56.976;24.168;2023-08-08T08:55:44;16.50;99.90
22008;DHT22;11168;56.976;24.168;2023-08-08T08:58:15;16.50;99.90
22008;DHT22;11168;56.976;24.168;2023-08-08T09:00:44;16.50;99.90
22008;DHT22;11168;56.976;24.168;2023-08-08T09:03:13;16.40;99.90
22008;DHT22;11168;56.976;24.168;2023-08-08T09:05:41;16.30;99.90
22008;DHT22;11168;56.976;24.168;2023-08-08T09:08:08;16.40;99.90
22008;DHT22;11168;56.976;24.168;2023-08-08T09:10:38;16.50;99.90
22008;DHT22;11168;56.976;24.168;2023-08-08T09:13:06;16.60;99.90
22008;DHT22;11168;56.976;24.168;2023-08-08T09:15:34;16.60;99.90
22008;DHT22;11168;56.976;24.168;2023-08-08T09:18:01;16.60;99.90
22008;DHT22;11168;56.976;24.168;2023-08-08T09:20:29;16.60;99.90
22008;DHT22;11168;56.976;24.168;2023-08-08T09:22:56;16.80;99.90
22008;DHT22;11168;56.976;24.168;2023-08-08T09:25:24;16.70;99.90
22008;DHT22;11168;56.976;24.168;2023-08-08T09:27:52;16.60;99.90
22008;DHT22;11168;56.976;24.168;2023-08-08T09:30:23;16.30;99.90
22008;DHT22;11168;56.976;24.168;2023-08-08T09:32:50;16.10;99.90
22008;DHT22;11168;56.976;24.168;2023-08-08T09:35:17;16.00;99.90
22008;DHT22;11168;56.976;24.168;2023-08-08T09:37:45;16.00;99.90
22008;DHT22;11168;56.976;24.168;2023-08-08T09:40:12;16.10;99.90
22008;DHT22;11168;56.976;24.168;2023-08-08T09:42:40;16.20;99.90
22008;DHT22;11168;56.976;24.168;2023-08-08T09:45:09;16.10;99.90
22008;DHT22;11168;56.976;24.168;2023-08-08T09:47:37;16.00;99.90
22008;DHT22;11168;56.976;24.168;2023-08-08T09:50:05;16.00;99.90
22008;DHT22;11168;56.976;24.168;2023-08-08T09:52:36;16.00;99.90
22008;DHT22;11168;56.976;24.168;2023-08-08T09:55:06;15.80;99.90
22008;DHT22;11168;56.976;24.168;2023-08-08T09:57:33;15.80;99.90
22008;DHT22;11168;56.976;24.168;2023-08-08T10:00:01;15.70;99.90
22008;DHT22;11168;56.976;24.168;2023-08-08T10:02:31;15.60;99.90
22008;DHT22;11168;56.976;24.168;2023-08-08T10:04:59;15.60;99.90
22008;DHT22;11168;56.976;24.168;2023-08-08T10:07:26;15.60;99.90
22008;DHT22;11168;56.976;24.168;2023-08-08T10:09:53;15.50;99.90
22008;DHT22;11168;56.976;24.168;2023-08-08T10:12:20;15.60;99.90
22008;DHT22;11168;56.976;24.168;2023-08-08T10:14:50;15.70;99.90
22008;DHT22;11168;56.976;24.168;2023-08-08T10:17:18;15.70;99.90
22008;DHT22;11168;56.976;24.168;2023-08-08T10:19:55;15.60;99.90
22008;DHT22;11168;56.976;24.168;2023-08-08T10:22:23;15.70;99.90
22008;DHT22;11168;56.976;24.168;2023-08-08T10:24:52;15.70;99.90
22008;DHT22;11168;56.976;24.168;2023-08-08T10:27:31;15.70;99.90
22008;DHT22;11168;56.976;24.168;2023-08-08T10:30:06;16.00;99.90
22008;DHT22;11168;56.976;24.168;2023-08-08T10:32:45;16.20;99.90
22008;DHT22;11168;56.976;24.168;2023-08-08T10:35:15;16.10;99.90
22008;DHT22;11168;56.976;24.168;2023-08-08T10:37:53;16.20;99.90
22008;DHT22;11168;56.976;24.168;2023-08-08T10:40:20;16.40;99.90
22008;DHT22;11168;56.976;24.168;2023-08-08T10:42:47;16.60;99.90
22008;DHT22;11168;56.976;24.168;2023-08-08T10:45:16;17.00;99.90
22008;DHT22;11168;56.976;24.168;2023-08-08T10:47:44;17.10;99.90
22008;DHT22;11168;56.976;24.168;2023-08-08T10:50:16;17.00;99.90
22008;DHT22;11168;56.976;24.168;2023-08-08T10:55:26;17.10;99.90
22008;DHT22;11168;56.976;24.168;2023-08-08T10:57:55;17.20;99.90
22008;DHT22;11168;56.976;24.168;2023-08-08T11:00:26;17.40;99.90
22008;DHT22;11168;56.976;24.168;2023-08-08T11:02:54;17.40;99.90
22008;DHT22;11168;56.976;24.168;2023-08-08T11:05:23;17.40;99.90
22008;DHT22;11168;56.976;24.168;2023-08-08T11:07:50;17.50;99.90
22008;DHT22;11168;56.976;24.168;2023-08-08T11:10:18;17.60;99.90
22008;DHT22;11168;56.976;24.168;2023-08-08T11:13:04;17.60;99.90
22008;DHT22;11168;56.976;24.168;2023-08-08T11:15:34;17.50;99.90
22008;DHT22;11168;56.976;24.168;2023-08-08T11:18:02;17.50;99.90
22008;DHT22;11168;56.976;24.168;2023-08-08T11:20:31;17.40;99.90
22008;DHT22;11168;56.976;24.168;2023-08-08T11:22:59;17.40;99.90
22008;DHT22;11168;56.976;24.168;2023-08-08T11:25:28;17.20;99.90
22008;DHT22;11168;56.976;24.168;2023-08-08T11:27:56;17.30;99.90
22008;DHT22;11168;56.976;24.168;2023-08-08T11:30:28;17.30;99.90
22008;DHT22;11168;56.976;24.168;2023-08-08T11:32:55;17.40;99.90
22008;DHT22;11168;56.976;24.168;2023-08-08T11:35:25;17.60;99.90
22008;DHT22;11168;56.976;24.168;2023-08-08T11:37:58;17.70;99.90
22008;DHT22;11168;56.976;24.168;2023-08-08T11:40:27;17.60;99.90
22008;DHT22;11168;56.976;24.168;2023-08-08T11:42:55;17.70;99.90
22008;DHT22;11168;56.976;24.168;2023-08-08T11:45:23;18.20;99.90
22008;DHT22;11168;56.976;24.168;2023-08-08T11:47:53;18.60;99.90
22008;DHT22;11168;56.976;24.168;2023-08-08T11:50:22;18.50;99.90
22008;DHT22;11168;56.976;24.168;2023-08-08T11:52:52;18.50;99.90
22008;DHT22;11168;56.976;24.168;2023-08-08T11:55:28;18.30;99.90
22008;DHT22;11168;56.976;24.168;2023-08-08T11:57:56;18.20;99.90
22008;DHT22;11168;56.976;24.168;2023-08-08T12:00:28;18.20;99.90
22008;DHT22;11168;56.976;24.168;2023-08-08T12:02:56;18.50;99.90
22008;DHT22;11168;56.976;24.168;2023-08-08T12:05:25;18.50;99.90
22008;DHT22;11168;56.976;24.168;2023-08-08T12:07:52;18.30;99.90
22008;DHT22;11168;56.976;24.168;2023-08-08T12:10:22;18.50;99.90
22008;DHT22;11168;56.976;24.168;2023-08-08T12:12:54;18.50;99.90
22008;DHT22;11168;56.976;24.168;2023-08-08T12:15:22;18.60;99.90
22008;DHT22;11168;56.976;24.168;2023-08-08T12:17:49;18.40;99.90
22008;DHT22;11168;56.976;24.168;2023-08-08T12:20:16;18.60;99.90
22008;DHT22;11168;56.976;24.168;2023-08-08T12:22:43;18.70;99.90
22008;DHT22;11168;56.976;24.168;2023-08-08T12:25:11;18.80;99.90
22008;DHT22;11168;56.976;24.168;2023-08-08T12:27:38;18.60;99.90
22008;DHT22;11168;56.976;24.168;2023-08-08T12:30:08;18.60;99.90
22008;DHT22;11168;56.976;24.168;2023-08-08T12:32:35;18.50;99.90
22008;DHT22;11168;56.976;24.168;2023-08-08T12:35:02;18.20;99.90
22008;DHT22;11168;56.976;24.168;2023-08-08T12:37:29;18.00;99.90
22008;DHT22;11168;56.976;24.168;2023-08-08T12:39:57;18.30;99.90
22008;DHT22;11168;56.976;24.168;2023-08-08T12:42:24;18.40;99.90
22008;DHT22;11168;56.976;24.168;2023-08-08T12:44:51;18.50;99.90
22008;DHT22;11168;56.976;24.168;2023-08-08T12:47:19;18.60;99.90
22008;DHT22;11168;56.976;24.168;2023-08-08T12:49:47;18.40;99.90
22008;DHT22;11168;56.976;24.168;2023-08-08T12:52:14;18.20;99.90
22008;DHT22;11168;56.976;24.168;2023-08-08T12:54:41;18.10;99.90
22008;DHT22;11168;56.976;24.168;2023-08-08T12:57:08;17.40;99.90
22008;DHT22;11168;56.976;24.168;2023-08-08T12:59:35;16.20;99.90
22008;DHT22;11168;56.976;24.168;2023-08-08T13:02:03;15.30;99.90
22008;DHT22;11168;56.976;24.168;2023-08-08T13:04:31;15.10;99.90
22008;DHT22;11168;56.976;24.168;2023-08-08T13:06:58;14.90;99.90
22008;DHT22;11168;56.976;24.168;2023-08-08T13:09:25;14.80;99.90
22008;DHT22;11168;56.976;24.168;2023-08-08T13:11:52;14.60;99.90
22008;DHT22;11168;56.976;24.168;2023-08-08T13:14:19;14.30;99.90
22008;DHT22;11168;56.976;24.168;2023-08-08T13:16:46;14.30;99.90
22008;DHT22;11168;56.976;24.168;2023-08-08T13:19:13;14.20;99.90
22008;DHT22;11168;56.976;24.168;2023-08-08T13:21:42;14.30;99.90
22008;DHT22;11168;56.976;24.168;2023-08-08T13:24:09;14.40;99.90
22008;DHT22;11168;56.976;24.168;2023-08-08T13:26:36;14.40;99.90
22008;DHT22;11168;56.976;24.168;2023-08-08T13:29:03;14.50;99.90
22008;DHT22;11168;56.976;24.168;2023-08-08T13:31:30;14.50;99.90
22008;DHT22;11168;56.976;24.168;2023-08-08T13:33:57;14.50;99.90
22008;DHT22;11168;56.976;24.168;2023-08-08T13:36:24;14.60;99.90
22008;DHT22;11168;56.976;24.168;2023-08-08T13:38:51;14.60;99.90
22008;DHT22;11168;56.976;24.168;2023-08-08T13:41:21;14.70;99.90
22008;DHT22;11168;56.976;24.168;2023-08-08T13:43:48;14.80;99.90
22008;DHT22;11168;56.976;24.168;2023-08-08T13:46:15;14.90;99.90
22008;DHT22;11168;56.976;24.168;2023-08-08T13:48:42;15.00;99.90
22008;DHT22;11168;56.976;24.168;2023-08-08T13:51:09;15.00;99.90
22008;DHT22;11168;56.976;24.168;2023-08-08T13:53:36;15.00;99.90
22008;DHT22;11168;56.976;24.168;2023-08-08T13:56:03;15.00;99.90
22008;DHT22;11168;56.976;24.168;2023-08-08T13:58:31;15.10;99.90
22008;DHT22;11168;56.976;24.168;2023-08-08T14:00:58;15.10;99.90
22008;DHT22;11168;56.976;24.168;2023-08-08T14:03:25;15.10;99.90
22008;DHT22;11168;56.976;24.168;2023-08-08T14:05:52;15.20;99.90
22008;DHT22;11168;56.976;24.168;2023-08-08T14:08:22;15.20;99.90
22008;DHT22;11168;56.976;24.168;2023-08-08T14:10:49;15.20;99.90
22008;DHT22;11168;56.976;24.168;2023-08-08T14:13:16;15.30;99.90
22008;DHT22;11168;56.976;24.168;2023-08-08T14:15:43;15.40;99.90
22008;DHT22;11168;56.976;24.168;2023-08-08T14:18:10;15.50;99.90
22008;DHT22;11168;56.976;24.168;2023-08-08T14:20:38;15.60;99.90
22008;DHT22;11168;56.976;24.168;2023-08-08T14:23:05;15.60;99.90
22008;DHT22;11168;56.976;24.168;2023-08-08T14:25:32;15.60;99.90
22008;DHT22;11168;56.976;24.168;2023-08-08T14:27:59;15.60;99.90
22008;DHT22;11168;56.976;24.168;2023-08-08T14:30:30;15.70;99.90
22008;DHT22;11168;56.976;24.168;2023-08-08T14:32:57;15.70;99.90
22008;DHT22;11168;56.976;24.168;2023-08-08T14:35:24;15.60;99.90
22008;DHT22;11168;56.976;24.168;2023-08-08T14:37:51;15.60;99.90
22008;DHT22;11168;56.976;24.168;2023-08-08T14:40:18;15.70;99.90
22008;DHT22;11168;56.976;24.168;2023-08-08T14:42:45;15.70;99.90
22008;DHT22;11168;56.976;24.168;2023-08-08T14:45:12;15.90;99.90
22008;DHT22;11168;56.976;24.168;2023-08-08T14:47:40;16.00;99.90
22008;DHT22;11168;56.976;24.168;2023-08-08T14:50:10;16.10;99.90
22008;DHT22;11168;56.976;24.168;2023-08-08T14:52:37;16.10;99.90
22008;DHT22;11168;56.976;24.168;2023-08-08T14:55:04;16.10;99.90
22008;DHT22;11168;56.976;24.168;2023-08-08T14:57:31;16.20;99.90
22008;DHT22;11168;56.976;24.168;2023-08-08T14:59:59;16.30;99.90
22008;DHT22;11168;56.976;24.168;2023-08-08T15:02:30;16.40;99.90
22008;DHT22;11168;56.976;24.168;2023-08-08T15:04:57;16.50;99.90
22008;DHT22;11168;56.976;24.168;2023-08-08T15:07:24;16.50;99.90
22008;DHT22;11168;56.976;24.168;2023-08-08T15:09:51;16.70;99.90
22008;DHT22;11168;56.976;24.168;2023-08-08T15:12:18;16.60;99.90
22008;DHT22;11168;56.976;24.168;2023-08-08T15:14:46;16.80;99.90
22008;DHT22;11168;56.976;24.168;2023-08-08T15:17:13;16.80;99.90
22008;DHT22;11168;56.976;24.168;2023-08-08T15:19:40;16.90;99.90
22008;DHT22;11168;56.976;24.168;2023-08-08T15:22:07;16.90;99.90
22008;DHT22;11168;56.976;24.168;2023-08-08T15:24:34;17.00;99.90